Nicole Leigh Reinauer — WCZ5696 — position and weather

sailwx.info

Track history (hours):
 
Tides and Currents Weather Stations Pressure Air Temp Water Temp Dewpoint Dewpoint Depression Visibility Wind Speed Wind Dir Waves Ship Positions

Nicole Leigh Reinauer

Owner: H A REINAUER INC, STATEN ISLAND, NY. More information available from US FCC via Universal Licensing System and Coast Guard Vessel Documentation Center.

Last reported at 2017-Sep-21 04:30 UTC. Time now 2017-Sep-21 05:00 UTC.
Position N 39°38' W 074°04'.

Length 167 m; draft 6.7 m.

Type: Tanker. MMSI: 366774330.

Date/timePositionNaut miles runAvg speedWind from/ knotsBaromVisibWave heightAir tempDewpointWater temp
2017-Sep-21 04:30N 39°38' W 074°04'611.5
2017-Sep-21 03:57N 39°43' W 073°60'511.4
2017-Sep-21 03:29N 39°49' W 073°58'611.6
2017-Sep-21 03:00N 39°54' W 073°57'3411.6
2017-Sep-21 00:03N 40°28' W 073°53'110.7
2017-Sep-20 23:59N 40°29' W 073°54'510.0
2017-Sep-20 23:30N 40°31' W 073°60'5 9.4
2017-Sep-20 23:00N 40°35' W 074°02'4 8.4
2017-Sep-20 22:30N 40°39' W 074°03'1 1.3
2017-Sep-20 22:01N 40°40' W 074°02'0 0.1
2017-Sep-20 21:29N 40°40' W 074°02'0 0.0
2017-Sep-20 20:59N 40°40' W 074°02'0 0.0
2017-Sep-20 20:29N 40°40' W 074°02'0 0.0
2017-Sep-20 19:59N 40°40' W 074°02'0 0.0
2017-Sep-20 19:29N 40°40' W 074°02'0 0.0
2017-Sep-20 18:59N 40°40' W 074°02'0 0.0
2017-Sep-20 18:29N 40°40' W 074°02'0 0.1
2017-Sep-20 17:59N 40°40' W 074°02'0 0.0
2017-Sep-20 17:29N 40°40' W 074°02'0 0.0
2017-Sep-20 16:59N 40°40' W 074°02'0 0.0
2017-Sep-20 16:29N 40°40' W 074°02'0 0.0
2017-Sep-20 15:59N 40°40' W 074°02'0 0.1
2017-Sep-20 15:29N 40°40' W 074°02'0 0.1
2017-Sep-20 14:59N 40°40' W 074°02'0 0.1
2017-Sep-20 13:59N 40°40' W 074°02'0 0.1
2017-Sep-20 13:29N 40°40' W 074°02'0 0.1
2017-Sep-20 12:59N 40°40' W 074°02'0 0.1
2017-Sep-20 12:29N 40°40' W 074°02'0 0.0
2017-Sep-20 11:59N 40°40' W 074°02'0 0.0
2017-Sep-20 11:29N 40°40' W 074°02'0 0.1
2017-Sep-20 10:59N 40°40' W 074°02'0 0.0
2017-Sep-20 10:29N 40°40' W 074°02'0 0.1
2017-Sep-20 09:59N 40°40' W 074°02'0 0.0
2017-Sep-20 09:30N 40°40' W 074°02'0 0.2
2017-Sep-20 09:00N 40°40' W 074°02'0 0.0
2017-Sep-20 08:30N 40°40' W 074°02'0 0.0
2017-Sep-20 08:00N 40°40' W 074°02'0 0.0
2017-Sep-20 07:30N 40°40' W 074°02'0 0.0
2017-Sep-20 07:00N 40°40' W 074°02'0 0.1
2017-Sep-20 06:30N 40°40' W 074°02'0 0.0
2017-Sep-20 06:00N 40°40' W 074°02'0 0.0
2017-Sep-20 05:30N 40°40' W 074°02'0 0.1
2017-Sep-20 05:00N 40°40' W 074°02'0 0.1
2017-Sep-20 04:30N 40°40' W 074°02'0 0.0
2017-Sep-20 04:00N 40°40' W 074°02'0 0.0
2017-Sep-20 03:30N 40°40' W 074°02'0 0.2
2017-Sep-20 03:00N 40°40' W 074°02'0 0.1
2017-Sep-20 02:30N 40°40' W 074°02'0 0.3
2017-Sep-20 02:00N 40°40' W 074°02'0 0.1
2017-Sep-20 01:30N 40°40' W 074°02'4 7.0
2017-Sep-20 01:00N 40°42' W 073°59'4 7.6
2017-Sep-20 00:30N 40°46' W 073°57'4 7.0
2017-Sep-20 00:00N 40°48' W 073°53'4 8.8
2017-Sep-19 23:29N 40°48' W 073°47'0 0.1
2017-Sep-19 15:56N 40°48' W 073°47'5111.3
2017-Sep-19 11:27N 41°06' W 072°44'612.7
2017-Sep-19 11:00N 41°08' W 072°37'713.1
2017-Sep-19 10:30N 41°09' W 072°28'612.4
2017-Sep-19 10:00N 41°11' W 072°20'611.8
2017-Sep-19 09:30N 41°13' W 072°13'91 9.8
2017-Sep-19 00:12N 42°01' W 070°30'311.8
2017-Sep-18 23:59N 42°03' W 070°30'611.8
2017-Sep-18 23:30N 42°09' W 070°31'611.2
2017-Sep-18 23:00N 42°14' W 070°35'611.3
2017-Sep-18 22:30N 42°18' W 070°41'611.6
2017-Sep-18 22:00N 42°21' W 070°47'510.6
2017-Sep-18 21:31N 42°22' W 070°54'5 9.9
2017-Sep-18 21:01N 42°20' W 071°00'3 6.8
2017-Sep-18 20:31N 42°23' W 071°02'1 2.6
2017-Sep-18 20:01N 42°24' W 071°01'0 0.3
2017-Sep-18 19:30N 42°24' W 071°01'0 0.0
2017-Sep-18 19:00N 42°24' W 071°01'0 0.0
2017-Sep-18 18:30N 42°24' W 071°01'0 0.0
2017-Sep-18 18:01N 42°24' W 071°01'0 0.0
2017-Sep-18 17:31N 42°24' W 071°01'0 0.0
2017-Sep-18 17:01N 42°24' W 071°01'0 0.0
2017-Sep-18 16:31N 42°24' W 071°01'0 0.0
2017-Sep-18 16:00N 42°24' W 071°01'2 3.2
2017-Sep-18 15:31N 42°23' W 071°03'0 0.4
2017-Sep-18 15:00N 42°23' W 071°03'0 0.0
2017-Sep-18 14:26N 42°23' W 071°03'0 0.0
2017-Sep-18 14:01N 42°23' W 071°03'0 0.0
2017-Sep-18 13:30N 42°23' W 071°03'0 0.0
2017-Sep-18 13:00N 42°23' W 071°03'0 0.1
2017-Sep-18 12:30N 42°23' W 071°03'2 3.3
2017-Sep-18 12:00N 42°24' W 071°01'0 0.0
2017-Sep-18 11:31N 42°24' W 071°01'0 0.0
2017-Sep-18 11:01N 42°24' W 071°01'0 0.0
2017-Sep-18 10:30N 42°24' W 071°01'0 0.0
2017-Sep-18 10:01N 42°24' W 071°01'0 0.0
2017-Sep-18 09:30N 42°24' W 071°01'0 0.0
2017-Sep-18 09:01N 42°24' W 071°01'0 0.0
2017-Sep-18 08:30N 42°24' W 071°01'0 0.0
2017-Sep-18 08:01N 42°24' W 071°01'0 0.0
2017-Sep-18 07:30N 42°24' W 071°01'0 0.0
2017-Sep-18 07:00N 42°24' W 071°01'0 0.0
2017-Sep-18 06:30N 42°24' W 071°01'0 0.0
2017-Sep-18 06:01N 42°24' W 071°01'0 0.0
2017-Sep-18 05:31N 42°24' W 071°01'0 0.0
2017-Sep-18 05:01N 42°24' W 071°01'0 0.0
2017-Sep-18 04:30N 42°24' W 071°01'0 0.0
2017-Sep-18 04:00N 42°24' W 071°01'0 0.0
2017-Sep-18 03:31N 42°24' W 071°01'0 0.0
2017-Sep-18 03:01N 42°24' W 071°01'0 0.0
2017-Sep-18 02:31N 42°24' W 071°01'0 0.0
2017-Sep-18 02:01N 42°24' W 071°01'0 0.0
2017-Sep-18 01:31N 42°24' W 071°01'0 0.0
2017-Sep-18 01:01N 42°24' W 071°01'0 0.0
2017-Sep-18 00:30N 42°24' W 071°01'0 0.0
2017-Sep-18 00:01N 42°24' W 071°01'0 0.0
2017-Sep-17 23:30N 42°24' W 071°01'0 0.0
2017-Sep-17 23:01N 42°24' W 071°01'0 0.0
2017-Sep-17 22:30N 42°24' W 071°01'0 0.0
2017-Sep-17 22:01N 42°24' W 071°01'1 2.7
2017-Sep-17 21:30N 42°23' W 071°02'3 5.3
2017-Sep-17 21:01N 42°21' W 071°01'4 8.3
2017-Sep-17 20:31N 42°22' W 070°56'5 9.2
2017-Sep-17 20:00N 42°22' W 070°49'611.0
2017-Sep-17 19:30N 42°19' W 070°43'510.7
2017-Sep-17 19:01N 42°16' W 070°38'510.8
2017-Sep-17 18:31N 42°12' W 070°33'510.6
2017-Sep-17 18:00N 42°07' W 070°31'510.8
2017-Sep-17 17:30N 42°01' W 070°29'612.1
2017-Sep-17 17:00N 41°55' W 070°28'612.2
2017-Sep-17 16:29N 41°49' W 070°28'12 6.2
2017-Sep-17 14:38N 41°42' W 070°40'43 7.2
2017-Sep-17 08:39N 41°09' W 071°19'411.3
2017-Sep-17 08:18N 41°08' W 071°23'3510.9
2017-Sep-17 05:03N 40°52' W 072°06'311.3
2017-Sep-17 04:47N 40°51' W 072°09'811.3
2017-Sep-17 04:02N 40°47' W 072°19'111.5
2017-Sep-17 04:00N 40°47' W 072°20'611.5
2017-Sep-17 03:30N 40°45' W 072°27'611.7
2017-Sep-17 02:59N 40°43' W 072°34'611.7
2017-Sep-17 02:26N 40°41' W 072°42'612.0
2017-Sep-17 01:56N 40°39' W 072°50'511.5
2017-Sep-17 01:30N 40°38' W 072°56'3711.9
2017-Sep-16 22:25N 40°29' W 073°43'511.8
2017-Sep-16 21:59N 40°28' W 073°50'510.8
2017-Sep-16 21:30N 40°30' W 073°56'510.2
2017-Sep-16 21:00N 40°33' W 074°02'510.1
2017-Sep-16 20:31N 40°38' W 074°03'4 8.5
2017-Sep-16 20:00N 40°39' W 074°09'3 6.5
2017-Sep-16 19:30N 40°37' W 074°12'0 0.8
2017-Sep-16 19:00N 40°36' W 074°12'0 0.0
2017-Sep-15 20:07N 40°36' W 074°12'0 0.0
2017-Sep-15 20:00N 40°36' W 074°12'0 0.0
2017-Sep-15 19:30N 40°36' W 074°12'0 0.0
2017-Sep-15 19:00N 40°36' W 074°12'0 0.0
2017-Sep-15 18:30N 40°36' W 074°12'0 0.0
2017-Sep-15 18:00N 40°36' W 074°12'0 0.0
2017-Sep-15 17:30N 40°36' W 074°12'0 0.0
2017-Sep-15 17:00N 40°36' W 074°12'0 0.0
2017-Sep-15 16:30N 40°36' W 074°12'0 0.0
2017-Sep-15 16:00N 40°36' W 074°12'0 0.0
2017-Sep-15 15:30N 40°36' W 074°12'0 0.0
2017-Sep-15 15:00N 40°36' W 074°12'0 0.0
2017-Sep-15 14:30N 40°36' W 074°12'0 0.0
2017-Sep-15 14:00N 40°36' W 074°12'0 0.0
2017-Sep-15 13:30N 40°36' W 074°12'0 0.0
2017-Sep-15 13:00N 40°36' W 074°12'0 0.0
2017-Sep-15 12:30N 40°36' W 074°12'0 0.0
2017-Sep-15 12:00N 40°36' W 074°12'0 0.0
2017-Sep-15 11:30N 40°36' W 074°12'0 0.0
2017-Sep-15 11:00N 40°36' W 074°12'0 0.0
2017-Sep-15 10:30N 40°36' W 074°12'0 0.0
2017-Sep-15 10:00N 40°36' W 074°12'0 0.0
2017-Sep-15 09:30N 40°36' W 074°12'0 0.0
2017-Sep-15 09:00N 40°36' W 074°12'0 0.0
2017-Sep-15 08:30N 40°36' W 074°12'0 0.0
2017-Sep-15 08:00N 40°36' W 074°12'0 0.0
2017-Sep-15 07:30N 40°36' W 074°12'0 0.0
2017-Sep-15 07:00N 40°36' W 074°12'0 0.0
2017-Sep-15 06:30N 40°36' W 074°12'0 0.0
2017-Sep-15 06:00N 40°36' W 074°12'0 0.0
2017-Sep-15 05:30N 40°36' W 074°12'0 0.0
2017-Sep-15 05:00N 40°36' W 074°12'0 0.0
2017-Sep-15 04:30N 40°36' W 074°12'0 0.0
2017-Sep-15 04:00N 40°36' W 074°12'0 0.0
2017-Sep-15 03:30N 40°36' W 074°12'0 0.0
2017-Sep-15 03:00N 40°36' W 074°12'0 0.0
2017-Sep-15 02:30N 40°36' W 074°12'0 0.0
2017-Sep-15 02:00N 40°36' W 074°12'0 0.0
2017-Sep-15 01:30N 40°36' W 074°12'0 0.3
2017-Sep-15 01:00N 40°37' W 074°12'3 6.4
2017-Sep-15 00:30N 40°39' W 074°09'2 0.3
2017-Sep-14 19:25N 40°39' W 074°07'0 0.1
2017-Sep-14 18:59N 40°39' W 074°07'1 0.3
2017-Sep-14 16:09N 40°39' W 074°08'1 0.1
2017-Sep-14 06:37N 40°39' W 074°07'0 0.0
2017-Sep-14 06:30N 40°39' W 074°07'1 2.5
2017-Sep-14 06:00N 40°39' W 074°08'3 6.4
2017-Sep-14 05:30N 40°37' W 074°12'2 0.1
2017-Sep-13 16:06N 40°35' W 074°12'0 0.0
2017-Sep-13 16:00N 40°35' W 074°12'1 1.7
2017-Sep-13 15:30N 40°36' W 074°12'3 6.6
2017-Sep-13 15:00N 40°39' W 074°09'4 7.4
2017-Sep-13 14:30N 40°39' W 074°04'510.1
2017-Sep-13 14:00N 40°44' W 074°01'611.1
2017-Sep-13 13:30N 40°49' W 073°58'611.1
2017-Sep-13 13:00N 40°54' W 073°55'2 4.4
2017-Sep-13 12:30N 40°56' W 073°55'0 0.1
2017-Sep-13 12:00N 40°56' W 073°55'0 0.0
2017-Sep-13 11:30N 40°56' W 073°55'0 0.0
2017-Sep-13 11:00N 40°56' W 073°55'0 0.0
2017-Sep-13 10:30N 40°56' W 073°55'0 0.4
2017-Sep-13 10:00N 40°56' W 073°55'0 0.1
2017-Sep-13 09:26N 40°56' W 073°55'0 0.1
2017-Sep-13 09:00N 40°56' W 073°55'0 0.0
2017-Sep-13 08:29N 40°56' W 073°55'0 0.0
2017-Sep-13 08:00N 40°56' W 073°55'0 0.1
2017-Sep-13 07:30N 40°56' W 073°55'0 0.0
2017-Sep-13 07:00N 40°56' W 073°55'0 0.0
2017-Sep-13 06:30N 40°56' W 073°55'0 0.0
2017-Sep-13 06:00N 40°56' W 073°55'0 0.1
2017-Sep-13 05:30N 40°56' W 073°55'0 0.3
2017-Sep-13 05:00N 40°56' W 073°55'0 0.1
2017-Sep-13 04:30N 40°56' W 073°55'0 0.1
2017-Sep-13 03:59N 40°56' W 073°55'0 0.0
2017-Sep-13 03:30N 40°56' W 073°55'0 0.0
2017-Sep-13 03:00N 40°56' W 073°55'0 0.0
2017-Sep-13 02:30N 40°56' W 073°55'0 0.0
2017-Sep-13 02:00N 40°56' W 073°55'0 0.0
2017-Sep-13 01:30N 40°56' W 073°55'0 0.0
2017-Sep-13 00:51N 40°56' W 073°55'0 0.0
2017-Sep-13 00:30N 40°56' W 073°55'1 0.0
2017-Sep-11 05:45N 40°55' W 073°55'313.1
2017-Sep-11 05:30N 40°52' W 073°56'713.4
2017-Sep-11 05:00N 40°46' W 074°00'612.9
2017-Sep-11 04:30N 40°40' W 074°03'  
Track history (hours):
 
Tides and Currents Weather Stations Pressure Air Temp Water Temp Dewpoint Dewpoint Depression Visibility Wind Speed Wind Dir Waves Ship Positions

Nicole Leigh Reinauer

Owner: H A REINAUER INC, STATEN ISLAND, NY. More information available from US FCC via Universal Licensing System and Coast Guard Vessel Documentation Center.

Last reported at 2017-Sep-21 04:30 UTC. Time now 2017-Sep-21 05:00 UTC.
Position N 39°38' W 074°04'.

Length 167 m; draft 6.7 m.

Type: Tanker. MMSI: 366774330.

Date/timePositionNaut miles runAvg speedWind from/ knotsBaromVisibWave heightAir tempDewpointWater temp
2017-Sep-21 04:30N 39°38' W 074°04'611.5
2017-Sep-21 03:57N 39°43' W 073°60'511.4
2017-Sep-21 03:29N 39°49' W 073°58'611.6
2017-Sep-21 03:00N 39°54' W 073°57'3411.6
2017-Sep-21 00:03N 40°28' W 073°53'110.7
2017-Sep-20 23:59N 40°29' W 073°54'510.0
2017-Sep-20 23:30N 40°31' W 073°60'5 9.4
2017-Sep-20 23:00N 40°35' W 074°02'4 8.4
2017-Sep-20 22:30N 40°39' W 074°03'1 1.3
2017-Sep-20 22:01N 40°40' W 074°02'0 0.1
2017-Sep-20 21:29N 40°40' W 074°02'0 0.0
2017-Sep-20 20:59N 40°40' W 074°02'0 0.0
2017-Sep-20 20:29N 40°40' W 074°02'0 0.0
2017-Sep-20 19:59N 40°40' W 074°02'0 0.0
2017-Sep-20 19:29N 40°40' W 074°02'0 0.0
2017-Sep-20 18:59N 40°40' W 074°02'0 0.0
2017-Sep-20 18:29N 40°40' W 074°02'0 0.1
2017-Sep-20 17:59N 40°40' W 074°02'0 0.0
2017-Sep-20 17:29N 40°40' W 074°02'0 0.0
2017-Sep-20 16:59N 40°40' W 074°02'0 0.0
2017-Sep-20 16:29N 40°40' W 074°02'0 0.0
2017-Sep-20 15:59N 40°40' W 074°02'0 0.1
2017-Sep-20 15:29N 40°40' W 074°02'0 0.1
2017-Sep-20 14:59N 40°40' W 074°02'0 0.1
2017-Sep-20 13:59N 40°40' W 074°02'0 0.1
2017-Sep-20 13:29N 40°40' W 074°02'0 0.1
2017-Sep-20 12:59N 40°40' W 074°02'0 0.1
2017-Sep-20 12:29N 40°40' W 074°02'0 0.0
2017-Sep-20 11:59N 40°40' W 074°02'0 0.0
2017-Sep-20 11:29N 40°40' W 074°02'0 0.1
2017-Sep-20 10:59N 40°40' W 074°02'0 0.0
2017-Sep-20 10:29N 40°40' W 074°02'0 0.1
2017-Sep-20 09:59N 40°40' W 074°02'0 0.0
2017-Sep-20 09:30N 40°40' W 074°02'0 0.2
2017-Sep-20 09:00N 40°40' W 074°02'0 0.0
2017-Sep-20 08:30N 40°40' W 074°02'0 0.0
2017-Sep-20 08:00N 40°40' W 074°02'0 0.0
2017-Sep-20 07:30N 40°40' W 074°02'0 0.0
2017-Sep-20 07:00N 40°40' W 074°02'0 0.1
2017-Sep-20 06:30N 40°40' W 074°02'0 0.0
2017-Sep-20 06:00N 40°40' W 074°02'0 0.0
2017-Sep-20 05:30N 40°40' W 074°02'0 0.1
2017-Sep-20 05:00N 40°40' W 074°02'0 0.1
2017-Sep-20 04:30N 40°40' W 074°02'0 0.0
2017-Sep-20 04:00N 40°40' W 074°02'0 0.0
2017-Sep-20 03:30N 40°40' W 074°02'0 0.2
2017-Sep-20 03:00N 40°40' W 074°02'0 0.1
2017-Sep-20 02:30N 40°40' W 074°02'0 0.3
2017-Sep-20 02:00N 40°40' W 074°02'0 0.1
2017-Sep-20 01:30N 40°40' W 074°02'4 7.0
2017-Sep-20 01:00N 40°42' W 073°59'4 7.6
2017-Sep-20 00:30N 40°46' W 073°57'4 7.0
2017-Sep-20 00:00N 40°48' W 073°53'4 8.8
2017-Sep-19 23:29N 40°48' W 073°47'0 0.1
2017-Sep-19 15:56N 40°48' W 073°47'5111.3
2017-Sep-19 11:27N 41°06' W 072°44'612.7
2017-Sep-19 11:00N 41°08' W 072°37'713.1
2017-Sep-19 10:30N 41°09' W 072°28'612.4
2017-Sep-19 10:00N 41°11' W 072°20'611.8
2017-Sep-19 09:30N 41°13' W 072°13'91 9.8
2017-Sep-19 00:12N 42°01' W 070°30'311.8
2017-Sep-18 23:59N 42°03' W 070°30'611.8
2017-Sep-18 23:30N 42°09' W 070°31'611.2
2017-Sep-18 23:00N 42°14' W 070°35'611.3
2017-Sep-18 22:30N 42°18' W 070°41'611.6
2017-Sep-18 22:00N 42°21' W 070°47'510.6
2017-Sep-18 21:31N 42°22' W 070°54'5 9.9
2017-Sep-18 21:01N 42°20' W 071°00'3 6.8
2017-Sep-18 20:31N 42°23' W 071°02'1 2.6
2017-Sep-18 20:01N 42°24' W 071°01'0 0.3
2017-Sep-18 19:30N 42°24' W 071°01'0 0.0
2017-Sep-18 19:00N 42°24' W 071°01'0 0.0
2017-Sep-18 18:30N 42°24' W 071°01'0 0.0
2017-Sep-18 18:01N 42°24' W 071°01'0 0.0
2017-Sep-18 17:31N 42°24' W 071°01'0 0.0
2017-Sep-18 17:01N 42°24' W 071°01'0 0.0
2017-Sep-18 16:31N 42°24' W 071°01'0 0.0
2017-Sep-18 16:00N 42°24' W 071°01'2 3.2
2017-Sep-18 15:31N 42°23' W 071°03'0 0.4
2017-Sep-18 15:00N 42°23' W 071°03'0 0.0
2017-Sep-18 14:26N 42°23' W 071°03'0 0.0
2017-Sep-18 14:01N 42°23' W 071°03'0 0.0
2017-Sep-18 13:30N 42°23' W 071°03'0 0.0
2017-Sep-18 13:00N 42°23' W 071°03'0 0.1
2017-Sep-18 12:30N 42°23' W 071°03'2 3.3
2017-Sep-18 12:00N 42°24' W 071°01'0 0.0
2017-Sep-18 11:31N 42°24' W 071°01'0 0.0
2017-Sep-18 11:01N 42°24' W 071°01'0 0.0
2017-Sep-18 10:30N 42°24' W 071°01'0 0.0
2017-Sep-18 10:01N 42°24' W 071°01'0 0.0
2017-Sep-18 09:30N 42°24' W 071°01'0 0.0
2017-Sep-18 09:01N 42°24' W 071°01'0 0.0
2017-Sep-18 08:30N 42°24' W 071°01'0 0.0
2017-Sep-18 08:01N 42°24' W 071°01'0 0.0
2017-Sep-18 07:30N 42°24' W 071°01'0 0.0
2017-Sep-18 07:00N 42°24' W 071°01'0 0.0
2017-Sep-18 06:30N 42°24' W 071°01'0 0.0
2017-Sep-18 06:01N 42°24' W 071°01'0 0.0
2017-Sep-18 05:31N 42°24' W 071°01'0 0.0
2017-Sep-18 05:01N 42°24' W 071°01'0 0.0
2017-Sep-18 04:30N 42°24' W 071°01'0 0.0
2017-Sep-18 04:00N 42°24' W 071°01'0 0.0
2017-Sep-18 03:31N 42°24' W 071°01'0 0.0
2017-Sep-18 03:01N 42°24' W 071°01'0 0.0
2017-Sep-18 02:31N 42°24' W 071°01'0 0.0
2017-Sep-18 02:01N 42°24' W 071°01'0 0.0
2017-Sep-18 01:31N 42°24' W 071°01'0 0.0
2017-Sep-18 01:01N 42°24' W 071°01'0 0.0
2017-Sep-18 00:30N 42°24' W 071°01'0 0.0
2017-Sep-18 00:01N 42°24' W 071°01'0 0.0
2017-Sep-17 23:30N 42°24' W 071°01'0 0.0
2017-Sep-17 23:01N 42°24' W 071°01'0 0.0
2017-Sep-17 22:30N 42°24' W 071°01'0 0.0
2017-Sep-17 22:01N 42°24' W 071°01'1 2.7
2017-Sep-17 21:30N 42°23' W 071°02'3 5.3
2017-Sep-17 21:01N 42°21' W 071°01'4 8.3
2017-Sep-17 20:31N 42°22' W 070°56'5 9.2
2017-Sep-17 20:00N 42°22' W 070°49'611.0
2017-Sep-17 19:30N 42°19' W 070°43'510.7
2017-Sep-17 19:01N 42°16' W 070°38'510.8
2017-Sep-17 18:31N 42°12' W 070°33'510.6
2017-Sep-17 18:00N 42°07' W 070°31'510.8
2017-Sep-17 17:30N 42°01' W 070°29'612.1
2017-Sep-17 17:00N 41°55' W 070°28'612.2
2017-Sep-17 16:29N 41°49' W 070°28'12 6.2
2017-Sep-17 14:38N 41°42' W 070°40'43 7.2
2017-Sep-17 08:39N 41°09' W 071°19'411.3
2017-Sep-17 08:18N 41°08' W 071°23'3510.9
2017-Sep-17 05:03N 40°52' W 072°06'311.3
2017-Sep-17 04:47N 40°51' W 072°09'811.3
2017-Sep-17 04:02N 40°47' W 072°19'111.5
2017-Sep-17 04:00N 40°47' W 072°20'611.5
2017-Sep-17 03:30N 40°45' W 072°27'611.7
2017-Sep-17 02:59N 40°43' W 072°34'611.7
2017-Sep-17 02:26N 40°41' W 072°42'612.0
2017-Sep-17 01:56N 40°39' W 072°50'511.5
2017-Sep-17 01:30N 40°38' W 072°56'3711.9
2017-Sep-16 22:25N 40°29' W 073°43'511.8
2017-Sep-16 21:59N 40°28' W 073°50'510.8
2017-Sep-16 21:30N 40°30' W 073°56'510.2
2017-Sep-16 21:00N 40°33' W 074°02'510.1
2017-Sep-16 20:31N 40°38' W 074°03'4 8.5
2017-Sep-16 20:00N 40°39' W 074°09'3 6.5
2017-Sep-16 19:30N 40°37' W 074°12'0 0.8
2017-Sep-16 19:00N 40°36' W 074°12'0 0.0
2017-Sep-15 20:07N 40°36' W 074°12'0 0.0
2017-Sep-15 20:00N 40°36' W 074°12'0 0.0
2017-Sep-15 19:30N 40°36' W 074°12'0 0.0
2017-Sep-15 19:00N 40°36' W 074°12'0 0.0
2017-Sep-15 18:30N 40°36' W 074°12'0 0.0
2017-Sep-15 18:00N 40°36' W 074°12'0 0.0
2017-Sep-15 17:30N 40°36' W 074°12'0 0.0
2017-Sep-15 17:00N 40°36' W 074°12'0 0.0
2017-Sep-15 16:30N 40°36' W 074°12'0 0.0
2017-Sep-15 16:00N 40°36' W 074°12'0 0.0
2017-Sep-15 15:30N 40°36' W 074°12'0 0.0
2017-Sep-15 15:00N 40°36' W 074°12'0 0.0
2017-Sep-15 14:30N 40°36' W 074°12'0 0.0
2017-Sep-15 14:00N 40°36' W 074°12'0 0.0
2017-Sep-15 13:30N 40°36' W 074°12'0 0.0
2017-Sep-15 13:00N 40°36' W 074°12'0 0.0
2017-Sep-15 12:30N 40°36' W 074°12'0 0.0
2017-Sep-15 12:00N 40°36' W 074°12'0 0.0
2017-Sep-15 11:30N 40°36' W 074°12'0 0.0
2017-Sep-15 11:00N 40°36' W 074°12'0 0.0
2017-Sep-15 10:30N 40°36' W 074°12'0 0.0
2017-Sep-15 10:00N 40°36' W 074°12'0 0.0
2017-Sep-15 09:30N 40°36' W 074°12'0 0.0
2017-Sep-15 09:00N 40°36' W 074°12'0 0.0
2017-Sep-15 08:30N 40°36' W 074°12'0 0.0
2017-Sep-15 08:00N 40°36' W 074°12'0 0.0
2017-Sep-15 07:30N 40°36' W 074°12'0 0.0
2017-Sep-15 07:00N 40°36' W 074°12'0 0.0
2017-Sep-15 06:30N 40°36' W 074°12'0 0.0
2017-Sep-15 06:00N 40°36' W 074°12'0 0.0
2017-Sep-15 05:30N 40°36' W 074°12'0 0.0
2017-Sep-15 05:00N 40°36' W 074°12'0 0.0
2017-Sep-15 04:30N 40°36' W 074°12'0 0.0
2017-Sep-15 04:00N 40°36' W 074°12'0 0.0
2017-Sep-15 03:30N 40°36' W 074°12'0 0.0
2017-Sep-15 03:00N 40°36' W 074°12'0 0.0
2017-Sep-15 02:30N 40°36' W 074°12'0 0.0
2017-Sep-15 02:00N 40°36' W 074°12'0 0.0
2017-Sep-15 01:30N 40°36' W 074°12'0 0.3
2017-Sep-15 01:00N 40°37' W 074°12'3 6.4
2017-Sep-15 00:30N 40°39' W 074°09'2 0.3
2017-Sep-14 19:25N 40°39' W 074°07'0 0.1
2017-Sep-14 18:59N 40°39' W 074°07'1 0.3
2017-Sep-14 16:09N 40°39' W 074°08'1 0.1
2017-Sep-14 06:37N 40°39' W 074°07'0 0.0
2017-Sep-14 06:30N 40°39' W 074°07'1 2.5
2017-Sep-14 06:00N 40°39' W 074°08'3 6.4
2017-Sep-14 05:30N 40°37' W 074°12'2 0.1
2017-Sep-13 16:06N 40°35' W 074°12'0 0.0
2017-Sep-13 16:00N 40°35' W 074°12'1 1.7
2017-Sep-13 15:30N 40°36' W 074°12'3 6.6
2017-Sep-13 15:00N 40°39' W 074°09'4 7.4
2017-Sep-13 14:30N 40°39' W 074°04'510.1
2017-Sep-13 14:00N 40°44' W 074°01'611.1
2017-Sep-13 13:30N 40°49' W 073°58'611.1
2017-Sep-13 13:00N 40°54' W 073°55'2 4.4
2017-Sep-13 12:30N 40°56' W 073°55'0 0.1
2017-Sep-13 12:00N 40°56' W 073°55'0 0.0
2017-Sep-13 11:30N 40°56' W 073°55'0 0.0
2017-Sep-13 11:00N 40°56' W 073°55'0 0.0
2017-Sep-13 10:30N 40°56' W 073°55'0 0.4
2017-Sep-13 10:00N 40°56' W 073°55'0 0.1
2017-Sep-13 09:26N 40°56' W 073°55'0 0.1
2017-Sep-13 09:00N 40°56' W 073°55'0 0.0
2017-Sep-13 08:29N 40°56' W 073°55'0 0.0
2017-Sep-13 08:00N 40°56' W 073°55'0 0.1
2017-Sep-13 07:30N 40°56' W 073°55'0 0.0
2017-Sep-13 07:00N 40°56' W 073°55'0 0.0
2017-Sep-13 06:30N 40°56' W 073°55'0 0.0
2017-Sep-13 06:00N 40°56' W 073°55'0 0.1
2017-Sep-13 05:30N 40°56' W 073°55'0 0.3
2017-Sep-13 05:00N 40°56' W 073°55'0 0.1
2017-Sep-13 04:30N 40°56' W 073°55'0 0.1
2017-Sep-13 03:59N 40°56' W 073°55'0 0.0
2017-Sep-13 03:30N 40°56' W 073°55'0 0.0
2017-Sep-13 03:00N 40°56' W 073°55'0 0.0
2017-Sep-13 02:30N 40°56' W 073°55'0 0.0
2017-Sep-13 02:00N 40°56' W 073°55'0 0.0
2017-Sep-13 01:30N 40°56' W 073°55'0 0.0
2017-Sep-13 00:51N 40°56' W 073°55'0 0.0
2017-Sep-13 00:30N 40°56' W 073°55'1 0.0
2017-Sep-11 05:45N 40°55' W 073°55'313.1
2017-Sep-11 05:30N 40°52' W 073°56'713.4
2017-Sep-11 05:00N 40°46' W 074°00'612.9
2017-Sep-11 04:30N 40°40' W 074°03'  

Dump ship's entire track history